Share

Gillette, WY

RAWS ECHETA WY US (MECEW4) Elev 4396 ft | 44.47 °N, 105.84 °W | Change Station

Current weather conditions updated 36 minutes ago

Overcast
Overcast
47 °F
Feels Like 39 °F
N
24
Wind Variable Wind from NNW
Gusts 37.0 mph
Sunrise 6:13 AM
Sunset 7:51 PM
Moon Waning Gibbous

Tomorrow is forecast to be Cooler than today.

Pressure 29.90 in
Visibility 10.0 miles
Clouds Mostly Cloudy 2400 ft
Overcast 3100 ft
Windchill 39 °F
Dew Point 37 °F
Humidity 68%
Rainfall 0.00 in
Snow Depth Not available.
UV 0 out of 16
Pollen 10.30 out of 12
Air Quality Not available.
Flu Activity Sporadic
SPECI KGCC 190502Z AUTO 35025G35KT 10SM BKN024 OVC031 07/03 A2990 RMK AO2 PK WND 35035/0500

More Conditions Fewer Conditions

Pressure 29.90 in
Visibility 10.0 miles
Clouds Mostly Cloudy 2400 ft
Overcast 3100 ft
Windchill 39 °F
Dew Point 37 °F
Humidity 68%
Rainfall 0.00 in
Snow Depth Not available.
UV 0 out of 16
Pollen 10.30 out of 12
Air Quality Not available.
Flu Activity Sporadic
SPECI KGCC 190502Z AUTO 35025G35KT 10SM BKN024 OVC031 07/03 A2990 RMK AO2 PK WND 35035/0500

More Conditions Fewer Conditions

10-Day Weather Forecast

Almanac

Astronomy

Apr. 18, 2014 Rise Set
Actual Time 6:13 AM MDT 7:51 PM MDT
Civil Twilight 5:42 AM MDT 8:22 PM MDT
Nautical Twilight 5:05 AM MDT 8:59 PM MDT
Astronomical Twilight 4:25 AM MDT 9:39 PM MDT
Moon 11:44 PM MDT (4/18) 8:32 AM MDT (4/18)
Length of Visible Light 14h 39m
Length of Day
13h 37m
Tomorrow will be 2m 55s longer.
Waning Gibbous, 83% of the Moon is Illuminated
Apr 19
Waning Gibbous
Apr 22
Last Quarter
Apr 29
New
May 6
First Quarter
May 14
Full

Yesterday's Extremes

State Highs State Lows

Community

  • Sunset Silhouettes
    Sunset Silhouettes
  • FL sunset Perico Isle
    FL sunset Perico Isle
  • Cloudy spring view
    Cloudy spring view
  • Old barn
    Old barn
  • What's for Lunch?
    What's for Lunch?

WunderPhotos

Upload Photos

1,702,647 photos uploaded!

WunderBlogs® & News

Nearby

Snow Depth

Station Depth Elevation
Casper Mountain 51 in 7850 ft
Reno Hill 58 in 8500 ft
Laprele Creek 26 in 8375 ft
Windy Peak 26 in 7900 ft
Townsend Creek 26 in 8700 ft

Coastal Water Temperatures

Place Temperature
No Stations Reporting

Earthquake Activity

City Distance Mag. Time & Date
No recent earthquake activity has been reported nearby.
Minimum magnitude displayed is 2.5.

Nearby Weather Stations

Station Location Temp. Windchill Dew Point Humidity Wind Precip. Elev Updated Type
RAWS ECHETA WY, Gillette, WY 47 °F 39 °F 37 °F 68% NNW  at  24 mph 0.00 in / hr 4396 ft 10:51 PM MDT MADIS
(North Gillette), Gillette, WY 44.3 °F 41 °F 36 °F 71% WNW  at  6.0 mph 0.00 in / hr 4610 ft 11:27 PM MDT Rapid Fire

Show More Stations Show Fewer Stations

What do you think?

We're not finished. Please let us know what you like, what you don't like, and what you are still missing.